Haleburg, Alabama
Current Conditions -  °F | °C
As of 5:55 PM on Sunday 21 Dec 2014 (Local Time) from KBIJ Reporting Station
Haze Haze  
Wind Chill: 54°   Ceiling: 300
Heat Index: 54°   Visibility: 2.5mi
Dew Point: 54°   Wind: 6mph
Humidity: 100%   Direction: 70°ENE
Pressure: 30.07"   Gusts: NA
Location:  31.367°N, 85.1491°W
Report Text: KBIJ 212355Z AUTO 07005KT 2 1/2SM BR OVC003 12/12 A3007 RMK AO2
Loading
Personal Weather Stations






























Interactive Weather Map New forecast layout! Learn more

10-Day Weather Forecast

Advertisements
Track Severe Weather on mobile